Terminal Aerodrome Forecast
Issued by NWS

Home | Current Version | Previous Version | Text Only | Print | Product List | Glossary On
Versions: 1 2 3 4 5 6 7 8 9 10 11 12
000
FTUS42 TJSJ 201700
TAFJPS
TAF
TJPS 201732Z 2018/2118 13010KT P6SM SCT035
     FM202200 05004KT P6SM FEW030
     FM211500 13012KT P6SM FEW030 SCT060
      AMD NOT SKED TIL 210300=

USA.gov is the U.S. government's official web portal to all federal, state and local government web resources and services.